createdAt,value
2022-11-18T00:03:35.044Z,2.95
2022-11-18T00:08:38.868Z,1.40
2022-11-18T00:13:59.729Z,5.53
2022-11-18T00:19:04.856Z,2.72
2022-11-18T00:24:09.050Z,3.65
2022-11-18T00:29:13.187Z,5.38
2022-11-18T00:34:19.231Z,6.60
2022-11-18T00:39:23.008Z,5.78
2022-11-18T00:44:26.992Z,5.32
2022-11-18T00:49:32.012Z,2.20
2022-11-18T00:54:35.822Z,4.28
2022-11-18T00:59:39.636Z,2.00
2022-11-18T01:04:44.798Z,6.43
2022-11-18T01:09:48.671Z,4.07
2022-11-18T01:14:52.415Z,4.13
2022-11-18T01:19:57.547Z,4.25
2022-11-18T01:25:01.241Z,4.63
2022-11-18T01:30:05.814Z,4.22
2022-11-18T01:35:11.550Z,4.20
2022-11-18T01:40:15.548Z,2.85
2022-11-18T01:45:38.877Z,4.10
2022-11-18T01:50:48.996Z,4.20
2022-11-18T01:55:55.383Z,7.78
2022-11-18T02:01:00.190Z,8.13
2022-11-18T02:06:07.825Z,4.00
2022-11-18T02:11:33.302Z,4.97
2022-11-18T02:16:58.214Z,6.82
2022-11-18T02:22:17.019Z,5.15
2022-11-18T02:27:54.139Z,5.38
2022-11-18T02:33:05.424Z,6.60
2022-11-18T02:38:13.979Z,5.35
2022-11-18T02:43:23.145Z,2.28
2022-11-18T02:48:31.989Z,5.45
2022-11-18T02:53:37.250Z,3.78
2022-11-18T02:58:40.993Z,4.43
2022-11-18T03:03:46.025Z,2.63
2022-11-18T03:08:56.699Z,3.53
2022-11-18T03:14:10.578Z,3.85
2022-11-18T03:19:23.168Z,3.40
2022-11-18T03:24:31.236Z,4.80
2022-11-18T03:29:39.424Z,3.00
2022-11-18T03:34:49.048Z,5.32
2022-11-18T03:40:00.546Z,3.22
2022-11-18T03:45:11.213Z,3.28
2022-11-18T03:50:21.971Z,4.95
2022-11-18T03:55:29.083Z,5.32
2022-11-18T04:05:42.894Z,5.63
2022-11-18T04:10:51.502Z,6.05
2022-11-18T04:15:56.012Z,5.03
2022-11-18T04:21:01.222Z,2.25
2022-11-18T04:26:04.898Z,4.10
2022-11-18T04:31:08.624Z,2.88
2022-11-18T04:36:13.686Z,2.35
2022-11-18T04:41:17.388Z,2.60
2022-11-18T04:46:21.026Z,3.25
2022-11-18T04:51:26.118Z,3.30
2022-11-18T04:56:29.797Z,5.55
2022-11-18T05:01:34.269Z,5.90
2022-11-18T05:06:40.865Z,2.92
2022-11-18T05:12:01.923Z,3.50
2022-11-18T05:17:08.266Z,2.70
2022-11-18T05:22:13.363Z,3.30
2022-11-18T05:27:17.385Z,5.57
2022-11-18T05:32:21.118Z,2.67
2022-11-18T05:37:26.371Z,1.38
2022-11-18T05:42:47.411Z,3.90
2022-11-18T05:48:04.516Z,3.13
2022-11-18T05:53:09.916Z,3.58
2022-11-18T05:58:13.571Z,6.10
2022-11-18T06:03:20.380Z,1.83
2022-11-18T06:08:28.152Z,6.53
2022-11-18T06:13:35.668Z,5.13
2022-11-18T06:18:39.528Z,3.33
2022-11-18T06:23:45.597Z,7.00
2022-11-18T06:28:50.585Z,2.55
2022-11-18T06:33:57.096Z,2.88
2022-11-18T06:39:05.761Z,5.38
2022-11-18T06:44:09.664Z,4.18
2022-11-18T06:49:13.378Z,5.95
2022-11-18T06:54:18.735Z,6.22
2022-11-18T06:59:24.498Z,6.25
2022-11-18T07:04:28.180Z,5.03
2022-11-18T07:09:33.694Z,4.18
2022-11-18T07:14:37.542Z,6.43
2022-11-18T07:19:42.578Z,6.80
2022-11-18T07:24:50.570Z,6.80
2022-11-18T07:29:55.444Z,3.15
2022-11-18T07:34:59.226Z,6.70
2022-11-18T07:40:04.456Z,3.53
2022-11-18T07:45:09.444Z,7.07
2022-11-18T07:50:13.170Z,5.15
2022-11-18T07:55:18.584Z,4.78
2022-11-18T08:00:22.416Z,5.32
2022-11-18T08:05:26.214Z,4.80
2022-11-18T08:10:31.394Z,3.88
2022-11-18T08:15:35.140Z,5.63
2022-11-18T08:20:38.993Z,5.50
2022-11-18T08:25:45.411Z,4.50
2022-11-18T08:30:49.224Z,7.57
2022-11-18T08:35:53.076Z,3.55
2022-11-18T08:40:58.381Z,8.30
2022-11-18T08:46:02.104Z,4.13
2022-11-18T08:51:11.954Z,3.88
2022-11-18T08:56:19.455Z,8.52
2022-11-18T09:01:23.476Z,5.72
2022-11-18T09:06:27.285Z,9.45
2022-11-18T09:11:32.572Z,5.82
2022-11-18T09:16:36.863Z,8.20
2022-11-18T09:21:41.080Z,3.65
2022-11-18T09:26:50.311Z,6.43
2022-11-18T09:31:54.266Z,7.45
2022-11-18T09:36:58.139Z,3.25
2022-11-18T09:42:16.831Z,6.15
2022-11-18T09:47:28.681Z,8.02
2022-11-18T09:52:37.740Z,4.85
2022-11-18T09:57:47.498Z,6.80
2022-11-18T10:03:00.173Z,7.20
2022-11-18T10:08:15.512Z,6.28
2022-11-18T10:13:32.788Z,3.80
2022-11-18T10:24:13.615Z,6.40
2022-11-18T10:29:18.827Z,11.18
2022-11-18T10:34:22.560Z,8.95
2022-11-18T10:39:26.517Z,5.00
2022-11-18T10:44:34.513Z,6.18
2022-11-18T10:49:40.536Z,6.53
2022-11-18T10:54:44.661Z,4.63
2022-11-18T10:59:52.244Z,10.48
2022-11-18T11:04:56.167Z,11.82
2022-11-18T11:10:19.129Z,7.18
2022-11-18T11:15:30.906Z,8.45
2022-11-18T11:20:35.143Z,6.85
2022-11-18T11:31:17.907Z,3.95
2022-11-18T11:37:11.360Z,8.48
2022-11-18T11:42:36.465Z,3.85
2022-11-18T11:48:08.942Z,6.97
2022-11-18T11:53:27.823Z,7.90
2022-11-18T11:58:56.316Z,7.93
2022-11-18T12:04:27.580Z,6.80
2022-11-18T12:09:49.333Z,7.72
2022-11-18T12:15:16.352Z,8.75
2022-11-18T12:20:50.128Z,4.07
2022-11-18T12:26:03.682Z,6.10
2022-11-18T12:31:44.293Z,7.88
2022-11-18T12:37:19.332Z,2.72
2022-11-18T12:43:01.090Z,7.93
2022-11-18T12:48:48.682Z,5.28
2022-11-18T12:54:16.996Z,5.57
2022-11-18T12:59:29.293Z,5.55
2022-11-18T13:04:33.757Z,5.50
2022-11-18T13:09:43.156Z,8.65
2022-11-18T13:15:10.140Z,4.18
2022-11-18T13:20:29.439Z,6.50
2022-11-18T13:25:40.772Z,5.07
2022-11-18T13:30:55.834Z,5.65
2022-11-18T13:36:01.832Z,6.15
2022-11-18T13:41:24.281Z,5.32
2022-11-18T13:46:29.481Z,7.72
2022-11-18T13:51:35.918Z,6.85
2022-11-18T13:56:49.168Z,6.70
2022-11-18T14:02:04.389Z,7.90
2022-11-18T14:07:32.087Z,11.23
2022-11-18T14:12:38.328Z,3.63
2022-11-18T14:17:58.253Z,4.53
2022-11-18T14:23:05.679Z,5.20
2022-11-18T14:28:21.421Z,5.28
2022-11-18T14:33:28.072Z,5.32
2022-11-18T14:38:57.559Z,7.45
2022-11-18T14:44:09.594Z,8.15
2022-11-18T14:49:22.167Z,7.82
2022-11-18T14:54:41.447Z,5.13
2022-11-18T14:59:54.000Z,4.60
2022-11-18T15:05:09.673Z,4.35
2022-11-18T15:10:16.783Z,5.60
2022-11-18T15:15:28.210Z,7.32
2022-11-18T15:20:37.657Z,3.85
2022-11-18T15:25:46.047Z,7.18
2022-11-18T15:31:06.708Z,9.27
2022-11-18T15:36:45.852Z,8.68
2022-11-18T15:41:50.042Z,7.05
2022-11-18T15:47:00.274Z,8.38
2022-11-18T15:52:08.602Z,10.30
2022-11-18T15:57:24.487Z,8.60
2022-11-18T16:02:47.313Z,9.93
2022-11-18T16:08:12.779Z,11.95
2022-11-18T16:14:10.132Z,9.32
2022-11-18T16:19:35.976Z,9.43
2022-11-18T16:25:34.079Z,13.48
2022-11-18T16:31:22.752Z,10.05
2022-11-18T16:50:14.731Z,13.80
2022-11-18T17:04:05.647Z,11.80
2022-11-18T17:08:50.875Z,13.60
2022-11-18T17:19:27.218Z,9.77
2022-11-18T17:24:31.371Z,14.07
2022-11-18T17:29:35.694Z,11.52
2022-11-18T17:34:41.045Z,12.65
2022-11-18T17:39:44.899Z,10.15
2022-11-18T17:44:48.614Z,9.48
2022-11-18T17:49:55.807Z,10.00
2022-11-18T18:00:03.329Z,9.18
2022-11-18T18:05:12.771Z,13.23
2022-11-18T18:10:17.055Z,14.23
2022-11-18T18:15:21.018Z,15.02
2022-11-18T18:20:26.440Z,15.43
2022-11-18T18:25:30.503Z,14.05
2022-11-18T18:30:34.341Z,16.48
2022-11-18T18:35:43.145Z,16.58
2022-11-18T18:40:47.359Z,15.05
2022-11-18T18:46:08.264Z,13.43
2022-11-18T18:51:13.884Z,13.43
2022-11-18T18:56:17.651Z,16.40
2022-11-18T19:01:22.536Z,16.92
2022-11-18T19:12:10.200Z,15.35
2022-11-18T19:17:14.452Z,13.82
2022-11-18T19:22:19.594Z,16.25
2022-11-18T19:27:23.452Z,16.27
2022-11-18T19:32:27.183Z,20.15
2022-11-18T19:37:33.717Z,21.13
2022-11-18T19:42:37.951Z,18.55
2022-11-18T19:47:41.676Z,20.08
2022-11-18T19:52:48.800Z,18.73
2022-11-18T20:02:55.882Z,22.33
2022-11-18T20:08:01.059Z,20.45
2022-11-18T20:13:05.044Z,18.98
2022-11-18T20:18:11.885Z,22.60
2022-11-18T20:23:17.318Z,20.80
2022-11-18T20:28:21.325Z,17.13
2022-11-18T20:33:25.081Z,22.52
2022-11-18T20:38:30.292Z,20.60
2022-11-18T20:43:34.738Z,21.63
2022-11-18T20:48:39.649Z,22.48
2022-11-18T20:53:45.417Z,21.50
2022-11-18T20:58:49.264Z,22.88
2022-11-18T21:03:54.893Z,21.58
2022-11-18T21:09:01.617Z,20.20
2022-11-18T21:14:25.692Z,21.17
2022-11-18T21:19:30.558Z,22.02
2022-11-18T21:24:39.383Z,22.83
2022-11-18T21:29:46.568Z,23.90
2022-11-18T21:34:50.749Z,26.33
2022-11-18T21:39:57.375Z,22.55
2022-11-18T21:45:01.119Z,22.08
2022-11-18T21:50:05.408Z,19.88
2022-11-18T21:55:11.097Z,24.92
2022-11-18T22:00:15.845Z,25.65
2022-11-18T22:05:20.017Z,21.90
2022-11-18T22:10:25.332Z,25.90
2022-11-18T22:15:29.189Z,20.73
2022-11-18T22:20:33.156Z,22.15
2022-11-18T22:25:38.335Z,14.88
2022-11-18T22:30:58.143Z,8.23
2022-11-18T22:36:02.738Z,7.78
2022-11-18T22:41:09.543Z,9.68
2022-11-18T22:46:13.223Z,8.45
2022-11-18T22:51:16.972Z,9.35
2022-11-18T22:56:28.347Z,12.23
2022-11-18T23:01:32.210Z,12.55
2022-11-18T23:06:36.047Z,15.82
2022-11-18T23:11:58.561Z,14.70
2022-11-18T23:17:02.495Z,14.60
2022-11-18T23:22:06.172Z,12.63
2022-11-18T23:27:11.378Z,13.07
2022-11-18T23:32:15.091Z,14.80
2022-11-18T23:37:18.753Z,12.68
2022-11-18T23:42:23.838Z,14.15
2022-11-18T23:47:28.211Z,13.52
2022-11-18T23:52:31.923Z,18.10
2022-11-18T23:57:37.072Z,22.15
